createdAt,value
2019-04-30T00:01:32.214Z,98633.45
2019-04-30T00:04:21.642Z,98627.43
2019-04-30T00:06:52.341Z,98621.41
2019-04-30T00:09:25.527Z,98623.97
2019-04-30T00:12:01.025Z,98627.89
2019-04-30T00:14:36.864Z,98619.42
2019-04-30T00:17:00.836Z,98621.70
2019-04-30T00:19:31.375Z,98618.47
2019-04-30T00:22:01.926Z,98618.80
2019-04-30T00:24:32.523Z,98619.09
2019-04-30T00:27:05.014Z,98615.19
2019-04-30T00:29:35.609Z,98617.80
2019-04-30T00:32:07.860Z,98611.78
2019-04-30T00:34:41.109Z,98611.08
2019-04-30T00:37:13.822Z,98616.47
2019-04-30T00:39:50.729Z,98607.34
2019-04-30T00:42:17.276Z,98616.20
2019-04-30T00:44:48.683Z,98610.77
2019-04-30T00:47:19.253Z,98609.00
2019-04-30T00:49:52.134Z,98608.02
2019-04-30T00:52:22.124Z,98610.15
2019-04-30T00:54:52.729Z,98601.81
2019-04-30T00:57:26.537Z,98597.39
2019-04-30T00:59:55.723Z,98599.33
2019-04-30T01:02:55.581Z,98599.81
2019-04-30T01:05:27.696Z,98594.78
2019-04-30T01:07:58.378Z,98592.16
2019-04-30T01:10:29.021Z,98595.92
2019-04-30T01:13:07.364Z,98596.00
2019-04-30T01:15:31.883Z,98593.39
2019-04-30T01:18:02.423Z,98592.92
2019-04-30T01:20:33.101Z,98589.48
2019-04-30T01:23:08.002Z,98590.47
2019-04-30T01:25:36.167Z,98585.27
2019-04-30T01:28:08.382Z,98590.96
2019-04-30T01:30:39.478Z,98592.11
2019-04-30T01:33:11.301Z,98589.47
2019-04-30T01:35:42.001Z,98588.80
2019-04-30T01:38:12.923Z,98591.42
2019-04-30T01:40:47.435Z,98587.98
2019-04-30T01:43:23.111Z,98591.80
2019-04-30T01:45:49.683Z,98583.48
2019-04-30T01:48:20.212Z,98585.81
2019-04-30T01:50:50.800Z,98584.31
2019-04-30T01:53:21.405Z,98581.69
2019-04-30T01:56:14.006Z,98578.26
2019-04-30T01:58:51.820Z,98584.77
2019-04-30T02:01:23.842Z,98582.64
2019-04-30T02:03:54.400Z,98590.20
2019-04-30T02:06:25.021Z,98584.61
2019-04-30T02:08:55.628Z,98583.95
2019-04-30T02:11:26.228Z,98587.25
2019-04-30T02:13:56.793Z,98592.34
2019-04-30T02:16:28.961Z,98589.76
2019-04-30T02:18:59.810Z,98595.64
2019-04-30T02:21:33.239Z,98591.42
2019-04-30T02:24:02.717Z,98588.61
2019-04-30T02:26:33.346Z,98591.72
2019-04-30T02:29:03.883Z,98589.92
2019-04-30T02:31:34.535Z,98592.20
2019-04-30T02:34:23.313Z,98588.80
2019-04-30T02:37:09.651Z,98589.97
2019-04-30T02:39:40.273Z,98590.13
2019-04-30T02:42:13.446Z,98580.79
2019-04-30T02:44:46.110Z,98585.39
2019-04-30T02:47:20.312Z,98586.86
2019-04-30T02:49:53.613Z,98585.06
2019-04-30T02:52:29.300Z,98585.39
2019-04-30T02:55:04.114Z,98596.97
2019-04-30T02:57:34.677Z,98592.44
2019-04-30T03:00:09.962Z,98593.75
2019-04-30T03:02:40.791Z,98589.34
2019-04-30T03:05:13.534Z,98600.29
2019-04-30T03:07:43.969Z,98594.70
2019-04-30T03:10:14.719Z,98595.66
2019-04-30T03:12:45.311Z,98598.45
2019-04-30T03:15:15.924Z,98591.58
2019-04-30T03:17:52.819Z,98586.02
2019-04-30T03:20:42.054Z,98594.19
2019-04-30T03:23:12.641Z,98584.41
2019-04-30T03:25:43.209Z,98584.95
2019-04-30T03:28:13.841Z,98582.17
2019-04-30T03:30:44.409Z,98586.04
2019-04-30T03:33:15.014Z,98589.01
2019-04-30T03:35:47.711Z,98582.47
2019-04-30T03:38:20.298Z,98593.82
2019-04-30T03:40:50.434Z,98591.97
2019-04-30T03:43:21.058Z,98589.36
2019-04-30T03:45:51.644Z,98593.61
2019-04-30T03:48:22.254Z,98592.93
2019-04-30T03:50:56.572Z,98595.89
2019-04-30T03:53:25.106Z,98592.05
2019-04-30T03:55:55.680Z,98596.92
2019-04-30T03:58:26.290Z,98591.02
2019-04-30T04:01:09.908Z,98591.20
2019-04-30T04:04:00.399Z,98585.18
2019-04-30T04:06:39.657Z,98590.06
2019-04-30T04:09:21.928Z,98590.92
2019-04-30T04:11:50.835Z,98589.10
2019-04-30T04:14:21.651Z,98590.08
2019-04-30T04:16:52.176Z,98587.81
2019-04-30T04:19:22.771Z,98591.73
2019-04-30T04:21:53.349Z,98587.81
2019-04-30T04:24:23.954Z,98593.20
2019-04-30T04:26:54.524Z,98598.27
2019-04-30T04:29:25.111Z,98599.93
2019-04-30T04:31:55.662Z,98596.01
2019-04-30T04:34:26.317Z,98600.55
2019-04-30T04:37:00.019Z,98597.94
2019-04-30T04:39:30.133Z,98596.83
2019-04-30T04:42:00.704Z,98600.42
2019-04-30T04:44:31.323Z,98599.79
2019-04-30T04:47:01.892Z,98599.25
2019-04-30T04:49:32.515Z,98601.86
2019-04-30T04:52:03.055Z,98600.91
2019-04-30T04:54:33.633Z,98609.56
2019-04-30T04:57:14.894Z,98608.10
2019-04-30T04:59:36.591Z,98605.16
2019-04-30T05:02:24.755Z,98605.99
2019-04-30T05:04:56.019Z,98605.31
2019-04-30T05:07:28.516Z,98605.98
2019-04-30T05:10:01.614Z,98607.63
2019-04-30T05:12:32.272Z,98606.80
2019-04-30T05:15:02.870Z,98607.75
2019-04-30T05:17:33.419Z,98602.20
2019-04-30T05:20:04.111Z,98604.46
2019-04-30T05:22:34.688Z,98600.87
2019-04-30T05:25:05.400Z,98597.22
2019-04-30T05:27:35.935Z,98604.58
2019-04-30T05:30:09.692Z,98605.54
2019-04-30T05:32:39.913Z,98609.62
2019-04-30T05:35:10.840Z,98604.21
2019-04-30T05:37:41.362Z,98608.80
2019-04-30T05:40:13.704Z,98608.80
2019-04-30T05:42:44.277Z,98605.87
2019-04-30T05:45:15.849Z,98606.34
2019-04-30T05:47:50.580Z,98603.56
2019-04-30T05:50:21.276Z,98607.76
2019-04-30T05:52:51.807Z,98611.55
2019-04-30T05:55:22.401Z,98603.86
2019-04-30T05:57:56.244Z,98603.37
2019-04-30T06:00:25.291Z,98601.71
2019-04-30T06:02:55.943Z,98607.63
2019-04-30T06:05:28.498Z,98611.55
2019-04-30T06:07:59.402Z,98607.60
2019-04-30T06:10:36.667Z,98603.19
2019-04-30T06:13:14.576Z,98606.78
2019-04-30T06:15:58.843Z,98608.56
2019-04-30T06:18:29.494Z,98613.67
2019-04-30T06:21:01.063Z,98608.23
2019-04-30T06:23:31.637Z,98611.31
2019-04-30T06:26:09.716Z,98607.03
2019-04-30T06:28:35.392Z,98605.55
2019-04-30T06:31:06.104Z,98611.59
2019-04-30T06:33:38.751Z,98613.03
2019-04-30T06:36:11.184Z,98606.00
2019-04-30T06:38:41.525Z,98610.06
2019-04-30T06:41:12.108Z,98612.44
2019-04-30T06:43:42.764Z,98614.02
2019-04-30T06:46:13.447Z,98613.66
2019-04-30T06:48:51.045Z,98614.34
2019-04-30T06:51:21.766Z,98621.81
2019-04-30T06:53:52.329Z,98617.21
2019-04-30T06:56:23.017Z,98616.86
2019-04-30T06:58:53.546Z,98615.84
2019-04-30T07:01:29.051Z,98619.75
2019-04-30T07:04:01.004Z,98620.50
2019-04-30T07:06:36.739Z,98629.86
2019-04-30T07:09:49.847Z,98620.38
2019-04-30T07:12:29.831Z,98620.86
2019-04-30T07:14:59.348Z,98617.75
2019-04-30T07:17:29.881Z,98625.01
2019-04-30T07:20:00.463Z,98621.73
2019-04-30T07:22:39.800Z,98624.05
2019-04-30T07:25:03.431Z,98627.52
2019-04-30T07:27:33.936Z,98626.97
2019-04-30T07:30:04.841Z,98627.95
2019-04-30T07:32:35.477Z,98626.91
2019-04-30T07:35:06.626Z,98625.28
2019-04-30T07:37:39.077Z,98625.44
2019-04-30T07:40:10.011Z,98631.44
2019-04-30T07:42:44.860Z,98630.43
2019-04-30T07:45:12.865Z,98626.98
2019-04-30T07:47:43.445Z,98633.86
2019-04-30T07:50:14.534Z,98629.22
2019-04-30T07:52:58.847Z,98626.91
2019-04-30T07:55:19.635Z,98627.66
2019-04-30T07:57:50.700Z,98629.26
2019-04-30T08:00:21.368Z,98629.88
2019-04-30T08:03:00.324Z,98640.66
2019-04-30T08:05:35.519Z,98633.45
2019-04-30T08:08:20.191Z,98628.31
2019-04-30T08:10:39.664Z,98625.86
2019-04-30T08:13:15.751Z,98633.29
2019-04-30T08:15:51.528Z,98620.45
2019-04-30T08:18:26.252Z,98632.04
2019-04-30T08:21:01.031Z,98631.94
2019-04-30T08:23:36.808Z,98629.27
2019-04-30T08:26:05.853Z,98635.38
2019-04-30T08:28:38.488Z,98631.57
2019-04-30T08:31:09.073Z,98630.71
2019-04-30T08:33:42.758Z,98639.35
2019-04-30T08:36:13.379Z,98633.58
2019-04-30T08:38:43.959Z,98633.45
2019-04-30T08:41:14.865Z,98632.77
2019-04-30T08:43:49.754Z,98639.67
2019-04-30T08:46:20.494Z,98637.72
2019-04-30T08:48:53.706Z,98635.75
2019-04-30T08:51:23.488Z,98625.03
2019-04-30T08:53:54.009Z,98627.11
2019-04-30T08:56:24.629Z,98624.91
2019-04-30T08:58:55.183Z,98617.16
2019-04-30T09:01:25.805Z,98624.86
2019-04-30T09:03:56.472Z,98616.80
2019-04-30T09:06:29.076Z,98625.65
2019-04-30T09:09:18.745Z,98625.03
2019-04-30T09:11:55.188Z,98619.42
2019-04-30T09:14:21.971Z,98618.68
2019-04-30T09:16:55.330Z,98619.28
2019-04-30T09:19:25.923Z,98613.09
2019-04-30T09:21:56.525Z,98623.70
2019-04-30T09:24:30.715Z,98627.20
2019-04-30T09:26:59.440Z,98626.52
2019-04-30T09:29:29.941Z,98634.01
2019-04-30T09:32:00.562Z,98624.38
2019-04-30T09:34:31.152Z,98621.59
2019-04-30T09:37:01.841Z,98623.27
2019-04-30T09:39:32.460Z,98619.48
2019-04-30T09:42:03.072Z,98622.67
2019-04-30T09:44:33.631Z,98624.47
2019-04-30T09:47:04.377Z,98616.72
2019-04-30T09:49:34.926Z,98608.19
2019-04-30T09:52:05.954Z,98610.75
2019-04-30T09:54:36.509Z,98604.75
2019-04-30T09:57:08.777Z,98602.80
2019-04-30T09:59:39.462Z,98605.95
2019-04-30T10:02:10.806Z,98609.30
2019-04-30T10:04:41.722Z,98602.02
2019-04-30T10:07:15.737Z,98606.63
2019-04-30T10:09:46.329Z,98603.67
2019-04-30T10:12:16.978Z,98603.67
2019-04-30T10:14:54.705Z,98589.81
2019-04-30T10:17:34.714Z,98583.33
2019-04-30T10:20:07.544Z,98598.88
2019-04-30T10:22:39.899Z,98585.08
2019-04-30T10:25:11.515Z,98584.05
2019-04-30T10:27:42.185Z,98573.38
2019-04-30T10:30:13.954Z,98577.14
2019-04-30T10:32:44.543Z,98565.97
2019-04-30T10:35:18.342Z,98575.41
2019-04-30T10:37:49.954Z,98576.52
2019-04-30T10:40:20.555Z,98570.13
2019-04-30T10:42:51.113Z,98576.70
2019-04-30T10:45:21.732Z,98572.16
2019-04-30T10:47:53.688Z,98567.94
2019-04-30T10:50:25.935Z,98560.66
2019-04-30T10:52:56.546Z,98562.33
2019-04-30T10:55:28.681Z,98561.86
2019-04-30T10:57:59.735Z,98557.74
2019-04-30T11:00:41.566Z,98565.77
2019-04-30T11:03:20.001Z,98558.59
2019-04-30T11:05:48.831Z,98566.30
2019-04-30T11:08:19.544Z,98555.70
2019-04-30T11:10:50.090Z,98550.94
2019-04-30T11:13:20.713Z,98547.60
2019-04-30T11:15:51.240Z,98544.22
2019-04-30T11:18:22.101Z,98556.17
2019-04-30T11:20:53.013Z,98546.17
2019-04-30T11:23:23.795Z,98552.98
2019-04-30T11:25:55.152Z,98540.27
2019-04-30T11:28:26.551Z,98540.45
2019-04-30T11:31:16.904Z,98539.22
2019-04-30T11:33:51.062Z,98534.69
2019-04-30T11:36:21.668Z,98527.95
2019-04-30T11:38:52.197Z,98520.37
2019-04-30T11:41:31.098Z,98509.97
2019-04-30T11:43:55.084Z,98517.06
2019-04-30T11:47:19.417Z,98512.21
2019-04-30T11:49:50.131Z,98505.32
2019-04-30T11:52:21.977Z,98493.89
2019-04-30T11:54:54.978Z,98495.52
2019-04-30T11:57:25.682Z,98504.64
2019-04-30T11:59:56.267Z,98499.19
2019-04-30T12:02:46.092Z,98499.37
2019-04-30T12:05:20.851Z,98490.48
2019-04-30T12:07:57.072Z,98504.23
2019-04-30T12:10:56.196Z,98483.58
2019-04-30T12:13:29.979Z,98484.37
2019-04-30T12:16:01.393Z,98485.59
2019-04-30T12:18:33.325Z,98488.33
2019-04-30T12:21:06.204Z,98481.13
2019-04-30T12:23:36.785Z,98478.81
2019-04-30T12:26:09.340Z,98479.22
2019-04-30T12:28:40.219Z,98475.14
2019-04-30T12:31:10.842Z,98470.67
2019-04-30T12:33:41.466Z,98473.80
2019-04-30T12:36:12.071Z,98476.91
2019-04-30T12:38:42.677Z,98468.79
2019-04-30T12:41:14.779Z,98472.75
2019-04-30T12:43:45.284Z,98463.02
2019-04-30T12:46:15.973Z,98468.07
2019-04-30T12:49:00.974Z,98464.70
2019-04-30T12:51:50.641Z,98465.18
2019-04-30T12:54:46.487Z,98448.82
2019-04-30T12:57:26.049Z,98455.19
2019-04-30T12:59:58.502Z,98442.66
2019-04-30T13:02:29.143Z,98448.55
2019-04-30T13:05:00.564Z,98447.12
2019-04-30T13:07:31.794Z,98446.73
2019-04-30T13:10:03.798Z,98451.27
2019-04-30T13:12:35.679Z,98439.32
2019-04-30T13:15:09.229Z,98441.69
2019-04-30T13:17:39.846Z,98446.50
2019-04-30T13:20:18.796Z,98434.62
2019-04-30T13:22:44.369Z,98430.62
2019-04-30T13:25:27.228Z,98430.71
2019-04-30T13:27:51.719Z,98429.91
2019-04-30T13:30:30.185Z,98432.44
2019-04-30T13:33:09.540Z,98428.92
2019-04-30T13:35:41.698Z,98422.63
2019-04-30T13:38:26.507Z,98415.24
2019-04-30T13:41:19.104Z,98405.69
2019-04-30T13:44:01.436Z,98411.56
2019-04-30T13:46:32.007Z,98407.84
2019-04-30T13:49:03.979Z,98406.96
2019-04-30T13:51:35.828Z,98403.64
2019-04-30T13:54:06.819Z,98400.13
2019-04-30T13:56:39.542Z,98397.09
2019-04-30T13:59:11.439Z,98388.86
2019-04-30T14:01:41.995Z,98391.36
2019-04-30T14:04:43.630Z,98388.52
2019-04-30T14:07:42.347Z,98381.36
2019-04-30T14:10:13.810Z,98377.89
2019-04-30T14:12:57.550Z,98379.78
2019-04-30T14:15:34.460Z,98384.42
2019-04-30T14:18:06.519Z,98381.72
2019-04-30T14:20:42.814Z,98376.05
2019-04-30T14:23:13.484Z,98374.62
2019-04-30T14:25:55.967Z,98375.38
2019-04-30T14:28:23.928Z,98363.75
2019-04-30T14:30:56.932Z,98368.25
2019-04-30T14:33:29.377Z,98372.92
2019-04-30T14:36:00.869Z,98372.59
2019-04-30T14:38:35.772Z,98371.56
2019-04-30T14:41:08.044Z,98369.13
2019-04-30T14:43:51.278Z,98367.69
2019-04-30T14:46:41.337Z,98371.37
2019-04-30T14:49:30.073Z,98368.84
2019-04-30T14:52:02.933Z,98369.05
2019-04-30T14:54:55.644Z,98372.77
2019-04-30T14:57:51.101Z,98375.72
2019-04-30T15:00:39.827Z,98363.44
2019-04-30T15:03:14.292Z,98370.80
2019-04-30T15:05:50.954Z,98373.88
2019-04-30T15:08:19.407Z,98377.89
2019-04-30T15:10:52.404Z,98368.22
2019-04-30T15:13:23.359Z,98379.68
2019-04-30T15:15:54.187Z,98366.96
2019-04-30T15:18:26.076Z,98373.52
2019-04-30T15:20:56.816Z,98363.69
2019-04-30T15:23:59.540Z,98364.10
2019-04-30T15:26:29.073Z,98364.80
2019-04-30T15:29:12.187Z,98358.61
2019-04-30T15:31:42.547Z,98360.68
2019-04-30T15:34:14.254Z,98360.93
2019-04-30T15:36:45.030Z,98360.67
2019-04-30T15:39:39.365Z,98355.58
2019-04-30T15:42:18.829Z,98357.28
2019-04-30T15:44:51.778Z,98357.09
2019-04-30T15:47:23.643Z,98357.03
2019-04-30T15:49:59.606Z,98348.29
2019-04-30T15:52:31.252Z,98346.96
2019-04-30T15:55:03.189Z,98353.86
2019-04-30T15:57:36.795Z,98350.75
2019-04-30T16:00:09.585Z,98349.13
2019-04-30T16:02:56.528Z,98347.09
2019-04-30T16:05:33.568Z,98351.37
2019-04-30T16:08:29.401Z,98348.27
2019-04-30T16:11:10.331Z,98348.55
2019-04-30T16:14:05.476Z,98345.56
2019-04-30T16:16:37.934Z,98346.52
2019-04-30T16:19:09.186Z,98341.95
2019-04-30T16:21:39.888Z,98340.12
2019-04-30T16:24:11.906Z,98335.41
2019-04-30T16:26:52.133Z,98337.25
2019-04-30T16:29:25.210Z,98337.55
2019-04-30T16:31:59.022Z,98333.75
2019-04-30T16:34:30.441Z,98334.85
2019-04-30T16:37:02.363Z,98338.06
2019-04-30T16:39:33.005Z,98338.53
2019-04-30T16:42:04.952Z,98336.10
2019-04-30T16:44:37.961Z,98328.36
2019-04-30T16:47:16.085Z,98333.92
2019-04-30T16:49:42.566Z,98330.15
2019-04-30T16:52:14.465Z,98338.53
2019-04-30T16:54:45.240Z,98328.53
2019-04-30T16:57:18.059Z,98331.77
2019-04-30T16:59:53.164Z,98333.53
2019-04-30T17:02:24.727Z,98325.66
2019-04-30T17:05:03.310Z,98326.04
2019-04-30T17:07:45.041Z,98323.05
2019-04-30T17:10:33.709Z,98328.21
2019-04-30T17:13:20.040Z,98330.22
2019-04-30T17:15:52.542Z,98324.93
2019-04-30T17:18:24.518Z,98324.63
2019-04-30T17:20:55.346Z,98319.23
2019-04-30T17:23:29.197Z,98320.56
2019-04-30T17:26:00.828Z,98319.77
2019-04-30T17:28:31.568Z,98323.18
2019-04-30T17:31:02.231Z,98312.27
2019-04-30T17:33:34.301Z,98314.25
2019-04-30T17:36:08.343Z,98316.59
2019-04-30T17:38:44.786Z,98321.88
2019-04-30T17:41:16.730Z,98320.05
2019-04-30T17:43:49.441Z,98325.34
2019-04-30T17:46:20.221Z,98319.99
2019-04-30T17:48:52.273Z,98313.69
2019-04-30T17:51:23.028Z,98313.98
2019-04-30T17:54:14.115Z,98320.73
2019-04-30T17:56:47.184Z,98325.30
2019-04-30T17:59:18.115Z,98322.67
2019-04-30T18:01:59.643Z,98328.04
2019-04-30T18:04:31.861Z,98334.42
2019-04-30T18:07:05.299Z,98337.58
2019-04-30T18:09:35.950Z,98336.78
2019-04-30T18:12:09.386Z,98334.92
2019-04-30T18:14:41.722Z,98332.89
2019-04-30T18:17:12.620Z,98338.06
2019-04-30T18:20:02.486Z,98336.67
2019-04-30T18:22:57.595Z,98333.80
2019-04-30T18:25:51.848Z,98343.83
2019-04-30T18:28:23.787Z,98342.70
2019-04-30T18:30:58.803Z,98348.91
2019-04-30T18:33:47.081Z,98346.37
2019-04-30T18:36:19.529Z,98345.23
2019-04-30T18:38:51.798Z,98345.86
2019-04-30T18:41:22.608Z,98347.80
2019-04-30T18:43:55.041Z,98351.92
2019-04-30T18:46:26.116Z,98349.55
2019-04-30T18:48:59.210Z,98353.04
2019-04-30T18:51:38.941Z,98355.95
2019-04-30T18:54:04.719Z,98355.18
2019-04-30T18:56:36.739Z,98352.38
2019-04-30T18:59:08.875Z,98360.01
2019-04-30T19:01:39.967Z,98358.33
2019-04-30T19:04:10.951Z,98365.72
2019-04-30T19:06:41.740Z,98363.61
2019-04-30T19:09:31.091Z,98366.49
2019-04-30T19:12:25.477Z,98371.07
2019-04-30T19:15:19.686Z,98371.80
2019-04-30T19:18:19.593Z,98372.52
2019-04-30T19:20:56.673Z,98375.56
2019-04-30T19:23:34.184Z,98374.36
2019-04-30T19:26:05.029Z,98378.00
2019-04-30T19:28:38.707Z,98387.03
2019-04-30T19:31:11.686Z,98388.00
2019-04-30T19:33:44.180Z,98391.14
2019-04-30T19:36:18.485Z,98390.10
2019-04-30T19:38:51.868Z,98396.89
2019-04-30T19:41:23.698Z,98396.67
2019-04-30T19:43:55.696Z,98400.80
2019-04-30T19:46:33.344Z,98409.17
2019-04-30T19:49:14.335Z,98405.34
2019-04-30T19:51:47.157Z,98404.62
2019-04-30T19:54:21.758Z,98411.09
2019-04-30T19:56:53.551Z,98406.92
2019-04-30T19:59:30.470Z,98402.56
2019-04-30T20:02:03.177Z,98408.41
2019-04-30T20:04:36.474Z,98410.91
2019-04-30T20:07:10.816Z,98409.97
2019-04-30T20:09:43.089Z,98417.44
2019-04-30T20:12:18.817Z,98413.94
2019-04-30T20:14:53.714Z,98414.83
2019-04-30T20:17:26.500Z,98418.14
2019-04-30T20:19:58.920Z,98424.81
2019-04-30T20:22:31.615Z,98420.02
2019-04-30T20:25:03.567Z,98416.98
2019-04-30T20:27:41.241Z,98420.53
2019-04-30T20:30:20.783Z,98417.41
2019-04-30T20:32:51.742Z,98419.42
2019-04-30T20:35:26.402Z,98417.39
2019-04-30T20:38:14.788Z,98421.94
2019-04-30T20:40:57.826Z,98418.88
2019-04-30T20:43:20.179Z,98416.96
2019-04-30T20:45:50.851Z,98420.58
2019-04-30T20:48:27.625Z,98418.09
2019-04-30T20:51:01.081Z,98422.08
2019-04-30T20:53:33.282Z,98413.19
2019-04-30T20:56:09.290Z,98416.52
2019-04-30T20:58:54.250Z,98416.42
2019-04-30T21:01:14.554Z,98415.99
2019-04-30T21:03:46.455Z,98411.39
2019-04-30T21:06:19.841Z,98406.03
2019-04-30T21:08:50.891Z,98409.91
2019-04-30T21:11:21.550Z,98415.75
2019-04-30T21:13:52.383Z,98414.71
2019-04-30T21:16:23.045Z,98404.02
2019-04-30T21:18:54.966Z,98406.41
2019-04-30T21:21:28.777Z,98399.91
2019-04-30T21:24:05.819Z,98402.05
2019-04-30T21:26:36.626Z,98405.16
2019-04-30T21:29:13.173Z,98403.53
2019-04-30T21:31:58.718Z,98402.22
2019-04-30T21:34:54.050Z,98406.26
2019-04-30T21:37:24.972Z,98405.27
2019-04-30T21:40:01.538Z,98408.95
2019-04-30T21:42:42.373Z,98399.58
2019-04-30T21:45:15.354Z,98405.81
2019-04-30T21:47:56.191Z,98415.56
2019-04-30T21:50:20.973Z,98412.79
2019-04-30T21:52:53.519Z,98411.69
2019-04-30T21:55:24.651Z,98419.32
2019-04-30T21:57:56.250Z,98412.64
2019-04-30T22:00:57.720Z,98413.83
2019-04-30T22:03:29.630Z,98420.34
2019-04-30T22:06:01.208Z,98420.42
2019-04-30T22:08:32.035Z,98412.33
2019-04-30T22:11:02.685Z,98410.78
2019-04-30T22:13:33.488Z,98412.91
2019-04-30T22:16:15.196Z,98414.86
2019-04-30T22:18:45.949Z,98415.64
2019-04-30T22:21:16.807Z,98418.75
2019-04-30T22:23:51.872Z,98415.23
2019-04-30T22:26:22.728Z,98422.19
2019-04-30T22:29:00.400Z,98415.73
2019-04-30T22:31:33.275Z,98418.30
2019-04-30T22:34:03.931Z,98418.42
2019-04-30T22:36:49.114Z,98409.72
2019-04-30T22:39:39.554Z,98414.20
2019-04-30T22:42:32.567Z,98409.59
2019-04-30T22:45:09.244Z,98410.41
2019-04-30T22:47:39.893Z,98411.06
2019-04-30T22:50:12.264Z,98410.20
2019-04-30T22:52:42.982Z,98411.22
2019-04-30T22:55:21.463Z,98404.36
2019-04-30T22:57:54.295Z,98405.91
2019-04-30T23:00:43.765Z,98404.52
2019-04-30T23:03:25.290Z,98403.91
2019-04-30T23:06:04.986Z,98398.91
2019-04-30T23:08:35.712Z,98400.39
2019-04-30T23:11:07.168Z,98398.45
2019-04-30T23:13:37.894Z,98394.57
2019-04-30T23:16:09.137Z,98388.39
2019-04-30T23:18:40.416Z,98395.02
2019-04-30T23:21:11.942Z,98392.92
2019-04-30T23:23:42.614Z,98392.76
2019-04-30T23:26:22.476Z,98397.30
2019-04-30T23:28:57.185Z,98386.30
2019-04-30T23:31:33.605Z,98391.36
2019-04-30T23:34:16.916Z,98384.63
2019-04-30T23:36:36.751Z,98382.56
2019-04-30T23:39:17.547Z,98388.95
2019-04-30T23:41:48.429Z,98387.28
2019-04-30T23:44:19.187Z,98386.50
2019-04-30T23:46:54.058Z,98383.30
2019-04-30T23:49:24.775Z,98388.16
2019-04-30T23:51:57.488Z,98380.81
2019-04-30T23:54:30.577Z,98384.41
2019-04-30T23:57:04.313Z,98379.27
2019-04-30T23:59:35.947Z,98379.20
